Time,TemperatureF,DewpointF,PressureIn,WindDirection,WindDirectionDegrees,WindSpeedMPH,WindSpeedGustMPH,Humidity,HourlyPrecipIn,Conditions,Clouds,dailyrainin,SoftwareType,DateUTC
2013-01-21 00:02:00,27.3,10.0,30.02,ESE,105,0.0,1.0,49,0.00,,,0.00,weatherlink.com 1.10,2013-01-21 05:02:00,
2013-01-21 00:17:00,27.1,11.0,30.02,East,83,0.0,2.0,50,0.00,,,0.00,weatherlink.com 1.10,2013-01-21 05:17:00,
2013-01-21 00:32:00,26.9,12.0,30.02,ENE,72,0.0,2.0,53,0.00,,,0.00,weatherlink.com 1.10,2013-01-21 05:32:00,
2013-01-21 00:47:00,26.8,12.0,30.03,WSW,245,0.0,2.0,55,0.00,,,0.00,weatherlink.com 1.10,2013-01-21 05:47:00,
2013-01-21 01:02:00,26.3,13.0,30.03,West,266,0.0,3.0,57,0.00,,,0.00,weatherlink.com 1.10,2013-01-21 06:02:00,
2013-01-21 01:17:00,26.1,13.0,30.04,SSE,150,0.0,1.0,58,0.00,,,0.00,weatherlink.com 1.10,2013-01-21 06:17:00,
2013-01-21 01:32:00,25.7,11.0,30.04,SW,228,2.0,3.0,54,0.00,,,0.00,weatherlink.com 1.10,2013-01-21 06:32:00,
2013-01-21 01:47:00,25.6,8.0,30.05,SE,139,1.0,6.0,47,0.00,,,0.00,weatherlink.com 1.10,2013-01-21 06:47:00,
2013-01-21 02:02:00,25.1,7.0,30.05,WNW,287,1.0,8.0,46,0.00,,,0.00,weatherlink.com 1.10,2013-01-21 07:02:00,
2013-01-21 02:17:00,24.9,8.0,30.05,ESE,120,0.0,6.0,48,0.00,,,0.00,weatherlink.com 1.10,2013-01-21 07:17:00,
2013-01-21 02:32:00,24.6,7.0,30.05,ENE,63,1.0,3.0,47,0.00,,,0.00,weatherlink.com 1.10,2013-01-21 07:32:00,
2013-01-21 02:47:00,24.4,7.0,30.05,WNW,290,0.0,3.0,47,0.00,,,0.00,weatherlink.com 1.10,2013-01-21 07:47:00,
2013-01-21 03:02:00,23.9,6.0,30.05,South,179,0.0,4.0,47,0.00,,,0.00,weatherlink.com 1.10,2013-01-21 08:02:00,
2013-01-21 03:17:00,23.6,7.0,30.06,ESE,114,0.0,1.0,50,0.00,,,0.00,weatherlink.com 1.10,2013-01-21 08:17:00,
2013-01-21 03:32:00,23.6,7.0,30.05,ENE,68,0.0,3.0,49,0.00,,,0.00,weatherlink.com 1.10,2013-01-21 08:32:00,
2013-01-21 03:47:00,23.2,7.0,30.06,East,97,0.0,1.0,50,0.00,,,0.00,weatherlink.com 1.10,2013-01-21 08:47:00,
2013-01-21 04:02:00,22.4,8.0,30.06,East,97,0.0,0.0,55,0.00,,,0.00,weatherlink.com 1.10,2013-01-21 09:02:00,
2013-01-21 04:17:00,21.7,9.0,30.06,East,97,0.0,0.0,59,0.00,,,0.00,weatherlink.com 1.10,2013-01-21 09:17:00,
2013-01-21 04:32:00,21.3,10.0,30.06,East,97,0.0,0.0,63,0.00,,,0.00,weatherlink.com 1.10,2013-01-21 09:32:00,
2013-01-21 04:47:00,20.7,11.0,30.06,East,98,0.0,0.0,65,0.00,,,0.00,weatherlink.com 1.10,2013-01-21 09:47:00,
2013-01-21 05:02:00,20.0,10.0,30.06,East,98,0.0,0.0,66,0.00,,,0.00,weatherlink.com 1.10,2013-01-21 10:02:00,
2013-01-21 05:18:00,19.1,11.0,30.06,East,98,0.0,0.0,71,0.00,,,0.00,weatherlink.com 1.10,2013-01-21 10:18:00,
2013-01-21 05:33:00,19.0,11.0,30.06,East,97,0.0,0.0,72,0.00,,,0.00,weatherlink.com 1.10,2013-01-21 10:33:00,
2013-01-21 05:48:00,19.0,12.0,30.06,East,97,0.0,0.0,73,0.00,,,0.00,weatherlink.com 1.10,2013-01-21 10:48:00,
2013-01-21 06:03:00,19.2,13.0,30.07,East,98,0.0,0.0,76,0.00,,,0.00,weatherlink.com 1.10,2013-01-21 11:03:00,
2013-01-21 06:18:00,19.1,13.0,30.07,East,98,0.0,0.0,77,0.00,,,0.00,weatherlink.com 1.10,2013-01-21 11:18:00,
2013-01-21 06:33:00,18.3,13.0,30.07,East,97,0.0,0.0,80,0.00,,,0.00,weatherlink.com 1.10,2013-01-21 11:33:00,
2013-01-21 06:48:00,17.8,13.0,30.07,East,98,0.0,0.0,81,0.00,,,0.00,weatherlink.com 1.10,2013-01-21 11:48:00,
2013-01-21 07:03:00,17.9,14.0,30.07,East,97,0.0,0.0,83,0.00,,,0.00,weatherlink.com 1.10,2013-01-21 12:03:00,
2013-01-21 07:18:00,18.7,14.0,30.06,East,98,0.0,0.0,82,0.00,,,0.00,weatherlink.com 1.10,2013-01-21 12:18:00,
2013-01-21 07:33:00,19.2,14.0,30.06,East,98,0.0,0.0,80,0.00,,,0.00,weatherlink.com 1.10,2013-01-21 12:33:00,
2013-01-21 07:48:00,19.2,14.0,30.07,East,98,0.0,0.0,79,0.00,,,0.00,weatherlink.com 1.10,2013-01-21 12:48:00,
2013-01-21 08:03:00,19.6,14.0,30.07,East,98,0.0,0.0,78,0.00,,,0.00,weatherlink.com 1.10,2013-01-21 13:03:00,
2013-01-21 08:18:00,20.5,14.0,30.07,East,98,0.0,1.0,76,0.00,,,0.00,weatherlink.com 1.10,2013-01-21 13:18:00,
2013-01-21 08:33:00,21.4,14.0,30.07,ESE,104,0.0,1.0,73,0.00,,,0.00,weatherlink.com 1.10,2013-01-21 13:33:00,
2013-01-21 08:48:00,22.2,14.0,30.07,ESE,106,0.0,1.0,70,0.00,,,0.00,weatherlink.com 1.10,2013-01-21 13:48:00,
2013-01-21 09:03:00,23.2,14.0,30.08,NW,321,0.0,1.0,67,0.00,,,0.00,weatherlink.com 1.10,2013-01-21 14:03:00,
2013-01-21 09:18:00,23.9,14.0,30.08,SE,146,0.0,1.0,66,0.00,,,0.00,weatherlink.com 1.10,2013-01-21 14:18:00,
2013-01-21 09:33:00,24.7,14.0,30.08,SE,145,0.0,1.0,63,0.00,,,0.00,weatherlink.com 1.10,2013-01-21 14:33:00,
2013-01-21 09:48:00,25.5,13.0,30.07,SE,125,0.0,1.0,59,0.00,,,0.00,weatherlink.com 1.10,2013-01-21 14:48:00,
2013-01-21 10:03:00,26.1,13.0,30.07,NNW,347,0.0,3.0,57,0.00,,,0.00,weatherlink.com 1.10,2013-01-21 15:03:00,
2013-01-21 10:18:00,27.0,12.0,30.06,West,277,0.0,1.0,54,0.00,,,0.00,weatherlink.com 1.10,2013-01-21 15:18:00,
2013-01-21 10:33:00,27.0,11.0,30.06,West,266,0.0,2.0,51,0.00,,,0.00,weatherlink.com 1.10,2013-01-21 15:33:00,
2013-01-21 10:48:00,26.6,11.0,30.05,WSW,250,0.0,1.0,51,0.00,,,0.00,weatherlink.com 1.10,2013-01-21 15:48:00,
2013-01-21 11:03:00,26.6,10.0,30.05,SW,219,0.0,3.0,50,0.00,,,0.00,weatherlink.com 1.10,2013-01-21 16:03:00,
2013-01-21 11:18:00,27.3,11.0,30.03,WNW,283,0.0,1.0,50,0.00,,,0.00,weatherlink.com 1.10,2013-01-21 16:18:00,
2013-01-21 11:33:00,26.9,11.0,30.02,WSW,255,0.0,4.0,51,0.00,,,0.00,weatherlink.com 1.10,2013-01-21 16:33:00,
2013-01-21 11:48:00,26.9,11.0,30.00,West,260,0.0,3.0,52,0.00,,,0.00,weatherlink.com 1.10,2013-01-21 16:48:00,
2013-01-21 12:03:00,27.3,11.0,30.00,SSW,211,0.0,4.0,51,0.00,,,0.00,weatherlink.com 1.10,2013-01-21 17:03:00,
2013-01-21 12:18:00,27.1,11.0,29.99,SSE,150,0.0,3.0,51,0.00,,,0.00,weatherlink.com 1.10,2013-01-21 17:18:00,
2013-01-21 12:33:00,27.5,12.0,29.98,WSW,242,0.0,2.0,52,0.00,,,0.00,weatherlink.com 1.10,2013-01-21 17:33:00,
2013-01-21 12:48:00,28.0,12.0,29.96,NW,311,2.0,2.0,51,0.00,,,0.00,weatherlink.com 1.10,2013-01-21 17:48:00,
2013-01-21 13:03:00,28.4,12.0,29.96,WSW,245,0.0,2.0,50,0.00,,,0.00,weatherlink.com 1.10,2013-01-21 18:03:00,
2013-01-21 13:18:00,28.5,12.0,29.95,ESE,121,0.0,3.0,50,0.00,,,0.00,weatherlink.com 1.10,2013-01-21 18:18:00,
2013-01-21 13:33:00,28.5,11.0,29.95,WSW,251,0.0,4.0,49,0.00,,,0.00,weatherlink.com 1.10,2013-01-21 18:33:00,
2013-01-21 13:48:00,28.3,12.0,29.94,SW,235,0.0,3.0,50,0.00,,,0.00,weatherlink.com 1.10,2013-01-21 18:48:00,
2013-01-21 14:03:00,28.3,12.0,29.93,WNW,298,0.0,2.0,51,0.00,,,0.00,weatherlink.com 1.10,2013-01-21 19:03:00,
2013-01-21 14:18:00,28.1,13.0,29.93,WSW,243,0.0,1.0,53,0.00,,,0.00,weatherlink.com 1.10,2013-01-21 19:18:00,
2013-01-21 14:34:00,28.1,13.0,29.92,SW,214,1.0,2.0,54,0.00,,,0.00,weatherlink.com 1.10,2013-01-21 19:34:00,
2013-01-21 14:49:00,28.0,13.0,29.92,SW,224,0.0,1.0,54,0.00,,,0.00,weatherlink.com 1.10,2013-01-21 19:49:00,
2013-01-21 15:04:00,28.1,13.0,29.91,East,92,0.0,2.0,54,0.00,,,0.00,weatherlink.com 1.10,2013-01-21 20:04:00,
2013-01-21 15:19:00,28.2,13.0,29.91,ESE,123,0.0,2.0,53,0.00,,,0.00,weatherlink.com 1.10,2013-01-21 20:19:00,
2013-01-21 15:34:00,28.1,13.0,29.90,East,83,0.0,1.0,54,0.00,,,0.00,weatherlink.com 1.10,2013-01-21 20:34:00,
2013-01-21 15:49:00,27.9,14.0,29.89,SE,135,0.0,3.0,57,0.00,,,0.00,weatherlink.com 1.10,2013-01-21 20:49:00,
2013-01-21 16:04:00,27.7,15.0,29.89,SSW,208,0.0,1.0,59,0.00,,,0.00,weatherlink.com 1.10,2013-01-21 21:04:00,
2013-01-21 16:19:00,27.6,15.0,29.89,SSW,210,1.0,1.0,60,0.00,,,0.00,weatherlink.com 1.10,2013-01-21 21:19:00,
2013-01-21 16:34:00,27.4,15.0,29.88,WNW,284,0.0,1.0,60,0.00,,,0.00,weatherlink.com 1.10,2013-01-21 21:34:00,
2013-01-21 16:49:00,27.4,15.0,29.88,East,101,0.0,2.0,59,0.00,,,0.00,weatherlink.com 1.10,2013-01-21 21:49:00,
2013-01-21 17:04:00,27.4,15.0,29.88,WNW,293,0.0,0.0,59,0.00,,,0.00,weatherlink.com 1.10,2013-01-21 22:04:00,
2013-01-21 17:19:00,27.5,15.0,29.88,West,260,3.0,3.0,59,0.00,,,0.00,weatherlink.com 1.10,2013-01-21 22:19:00,
2013-01-21 17:34:00,27.5,15.0,29.88,SSE,158,0.0,3.0,60,0.00,,,0.00,weatherlink.com 1.10,2013-01-21 22:34:00,
2013-01-21 17:49:00,27.3,15.0,29.88,SW,228,0.0,4.0,61,0.00,,,0.00,weatherlink.com 1.10,2013-01-21 22:49:00,
2013-01-21 18:04:00,27.1,16.0,29.89,West,264,0.0,3.0,64,0.00,,,0.00,weatherlink.com 1.10,2013-01-21 23:04:00,
2013-01-21 18:19:00,26.8,17.0,29.89,WSW,239,0.0,1.0,67,0.00,,,0.00,weatherlink.com 1.10,2013-01-21 23:19:00,
2013-01-21 18:34:00,26.6,18.0,29.89,SSW,212,0.0,1.0,69,0.00,,,0.00,weatherlink.com 1.10,2013-01-21 23:34:00,
2013-01-21 18:49:00,26.2,18.0,29.89,SSW,208,0.0,1.0,72,0.00,,,0.00,weatherlink.com 1.10,2013-01-21 23:49:00,
2013-01-21 19:04:00,25.8,19.0,29.90,WSW,249,0.0,2.0,75,0.00,,,0.00,weatherlink.com 1.10,2013-01-22 00:04:00,
2013-01-21 19:19:00,25.5,19.0,29.90,South,171,0.0,1.0,77,0.00,,,0.00,weatherlink.com 1.10,2013-01-22 00:19:00,
2013-01-21 19:34:00,25.2,20.0,29.89,SSW,208,0.0,1.0,79,0.00,,,0.00,weatherlink.com 1.10,2013-01-22 00:34:00,
2013-01-21 19:49:00,24.7,20.0,29.89,South,191,0.0,0.0,81,0.00,,,0.00,weatherlink.com 1.10,2013-01-22 00:49:00,
2013-01-21 20:04:00,24.0,19.0,29.88,ESE,107,0.0,0.0,82,0.00,,,0.00,weatherlink.com 1.10,2013-01-22 01:04:00,
2013-01-21 20:19:00,22.9,19.0,29.88,ESE,107,0.0,0.0,83,0.00,,,0.00,weatherlink.com 1.10,2013-01-22 01:19:00,
2013-01-21 20:34:00,21.8,18.0,29.87,ESE,108,0.0,0.0,84,0.00,,,0.00,weatherlink.com 1.10,2013-01-22 01:34:00,
2013-01-21 20:49:00,20.8,17.0,29.86,ESE,108,0.0,0.0,86,0.00,,,0.00,weatherlink.com 1.10,2013-01-22 01:49:00,
2013-01-21 21:04:00,19.8,17.0,29.86,ESE,107,0.0,0.0,87,0.00,,,0.00,weatherlink.com 1.10,2013-01-22 02:04:00,
2013-01-21 21:19:00,19.3,16.0,29.85,ESE,107,0.0,0.0,88,0.00,,,0.00,weatherlink.com 1.10,2013-01-22 02:19:00,
2013-01-21 21:34:00,18.8,16.0,29.84,ESE,107,0.0,0.0,90,0.00,,,0.00,weatherlink.com 1.10,2013-01-22 02:34:00,
2013-01-21 21:49:00,18.8,17.0,29.83,ESE,107,0.0,0.0,91,0.00,,,0.00,weatherlink.com 1.10,2013-01-22 02:49:00,
2013-01-21 22:04:00,18.4,16.0,29.82,ESE,107,0.0,0.0,91,0.00,,,0.00,weatherlink.com 1.10,2013-01-22 03:04:00,
2013-01-21 22:19:00,18.0,16.0,29.82,ESE,107,0.0,0.0,91,0.00,,,0.00,weatherlink.com 1.10,2013-01-22 03:19:00,
2013-01-21 22:34:00,17.7,16.0,29.80,ESE,107,0.0,0.0,91,0.00,,,0.00,weatherlink.com 1.10,2013-01-22 03:34:00,
2013-01-21 22:49:00,17.3,15.0,29.81,ESE,107,0.0,0.0,92,0.00,,,0.00,weatherlink.com 1.10,2013-01-22 03:49:00,
2013-01-21 23:04:00,17.3,15.0,29.81,ESE,107,0.0,0.0,92,0.00,,,0.00,weatherlink.com 1.10,2013-01-22 04:04:00,
2013-01-21 23:19:00,17.2,15.0,29.81,ESE,107,0.0,0.0,92,0.00,,,0.00,weatherlink.com 1.10,2013-01-22 04:19:00,
2013-01-21 23:34:00,17.4,16.0,29.81,ESE,107,0.0,0.0,93,0.00,,,0.00,weatherlink.com 1.10,2013-01-22 04:34:00,
2013-01-21 23:49:00,17.4,16.0,29.81,ESE,107,0.0,0.0,93,0.00,,,0.00,weatherlink.com 1.10,2013-01-22 04:49:00,